首页
METAR-TAF:

METAR-TAF

机场 :

科托卡国际机场

阿克拉, 加纳

纬度: 05-36N, 经度: 000-10W, 海拔: 68米

当前天气观测

该预报发布于1小时和6分钟前的01:00 UTC
风速4节,风向西
温度 24°C
湿度 100%
气压 1012 hPa
能见度10公里或以上
1500米以下无云,无积雨云

METAR: DGAA 310100Z 27004KT CAVOK 24/24 Q1012 NOSIG

时间: 02:06 (02:06 UTC)

预报

该预报发布于3小时和6分钟前的23:00 UTC
预报有效从31日的 00点(UTC)到 01日的 06点(UTC)
风速7节,风向西
能见度10公里或以上
多云层高于1200英尺
成为
从 31日的 11点(UTC)到 31日的 13点(UTC)
风速10节,风向
少量云层高于1500英尺
短暂存在
从 31日的 15点(UTC)到 31日的 20点(UTC)
能見度: 5000
少量云层高于3000英尺, 积雨云.
雷暴, 小雨

TAF: DGAA 302300Z 3100/0106 27007KT 9999 BKN012 BECMG 3111/3113 19010KT FEW015 TEMPO 3115/3120 5000 -TSRA FEW030CB

超过4000个机场的气象观测和天气预报(METAR&TAF报告)。

可查询的气象台以黄色和红色小点在地图上表示。

将鼠标移到小点上方,可查看气象台名称。

然后点击查看天气观测和预报。

如需切换地图:点击带黑十字的绿色按钮放大地图;点击带横线的绿色按钮缩小地图;或者点击绿色箭头查看邻近地区的地图。


METAR-TAF: